createdAt,value
2022-11-05T00:02:05.988Z,100753.56
2022-11-05T00:04:33.941Z,100754.56
2022-11-05T00:07:06.453Z,100751.84
2022-11-05T00:09:33.562Z,100764.38
2022-11-05T00:12:03.232Z,100762.66
2022-11-05T00:14:29.773Z,100768.06
2022-11-05T00:16:56.243Z,100773.50
2022-11-05T00:19:22.756Z,100771.63
2022-11-05T00:21:50.637Z,100777.19
2022-11-05T00:24:21.723Z,100776.31
2022-11-05T00:26:50.634Z,100783.59
2022-11-05T00:29:17.315Z,100780.88
2022-11-05T00:31:43.854Z,100780.75
2022-11-05T00:34:10.400Z,100784.44
2022-11-05T00:36:36.994Z,100782.59
2022-11-05T00:39:06.754Z,100780.88
2022-11-05T00:41:33.321Z,100782.59
2022-11-05T00:44:00.051Z,100788.00
2022-11-05T00:46:26.916Z,100791.56
2022-11-05T00:48:53.479Z,100788.84
2022-11-05T00:51:20.296Z,100795.13
2022-11-05T00:53:46.808Z,100793.41
2022-11-05T00:56:14.941Z,100792.41
2022-11-05T00:58:41.589Z,100797.81
2022-11-05T01:01:10.592Z,100800.53
2022-11-05T01:03:39.369Z,100798.97
2022-11-05T01:06:08.192Z,100800.09
2022-11-05T01:08:34.807Z,100803.81
2022-11-05T01:11:08.637Z,100811.91
2022-11-05T01:13:36.704Z,100805.81
2022-11-05T01:16:06.663Z,100814.25
2022-11-05T01:18:33.267Z,100809.84
2022-11-05T01:20:59.886Z,100810.81
2022-11-05T01:23:26.624Z,100815.50
2022-11-05T01:25:53.258Z,100823.63
2022-11-05T01:28:19.878Z,100817.53
2022-11-05T01:30:55.345Z,100824.78
2022-11-05T01:33:21.869Z,100831.34
2022-11-05T01:35:48.373Z,100835.19
2022-11-05T01:38:14.849Z,100829.94
2022-11-05T01:40:42.896Z,100834.63
2022-11-05T01:43:16.013Z,100833.91
2022-11-05T01:45:43.970Z,100841.34
2022-11-05T01:48:16.481Z,100840.63
2022-11-05T01:50:46.650Z,100840.91
2022-11-05T01:53:19.726Z,100850.00
2022-11-05T01:55:51.506Z,100851.03
2022-11-05T01:58:22.361Z,100861.13
2022-11-05T02:00:49.004Z,100867.69
2022-11-05T02:03:18.088Z,100865.13
2022-11-05T02:05:46.220Z,100868.13
2022-11-05T02:08:19.893Z,100873.78
2022-11-05T02:10:47.355Z,100869.53
2022-11-05T02:13:14.078Z,100875.25
2022-11-05T02:15:49.556Z,100868.28
2022-11-05T02:18:27.648Z,100875.50
2022-11-05T02:21:05.534Z,100880.06
2022-11-05T02:23:57.738Z,100886.50
2022-11-05T02:26:54.698Z,100883.19
2022-11-05T02:29:54.333Z,100879.81
2022-11-05T02:32:32.804Z,100882.63
2022-11-05T02:35:11.345Z,100884.66
2022-11-05T02:37:40.485Z,100882.22
2022-11-05T02:40:16.493Z,100884.91
2022-11-05T02:42:47.016Z,100890.31
2022-11-05T02:45:26.566Z,100889.63
2022-11-05T02:48:04.481Z,100888.75
2022-11-05T02:50:34.836Z,100893.47
2022-11-05T02:53:11.737Z,100896.44
2022-11-05T02:55:42.202Z,100898.28
2022-11-05T02:58:09.003Z,100899.44
2022-11-05T03:00:48.758Z,100904.09
2022-11-05T03:03:27.754Z,100904.28
2022-11-05T03:06:23.772Z,100903.72
2022-11-05T03:09:19.721Z,100914.50
2022-11-05T03:11:55.007Z,100918.31
2022-11-05T03:14:26.778Z,100921.31
2022-11-05T03:17:01.881Z,100925.00
2022-11-05T03:19:38.428Z,100920.75
2022-11-05T03:22:10.167Z,100924.56
2022-11-05T03:24:42.012Z,100928.41
2022-11-05T03:27:11.660Z,100929.53
2022-11-05T03:29:42.443Z,100938.91
2022-11-05T03:32:10.860Z,100940.16
2022-11-05T03:34:42.737Z,100944.88
2022-11-05T03:37:11.029Z,100939.72
2022-11-05T03:39:40.896Z,100945.41
2022-11-05T03:42:11.483Z,100945.69
2022-11-05T03:44:42.233Z,100942.28
2022-11-05T03:47:13.741Z,100945.97
2022-11-05T03:49:52.961Z,100958.75
2022-11-05T03:52:23.809Z,100963.41
2022-11-05T03:54:50.472Z,100971.78
2022-11-05T03:57:21.727Z,100977.47
2022-11-05T03:59:50.524Z,100973.06
2022-11-05T04:02:19.850Z,100972.38
2022-11-05T04:04:48.188Z,100972.63
2022-11-05T04:07:14.896Z,100974.59
2022-11-05T04:09:41.470Z,100985.66
2022-11-05T04:12:08.523Z,100988.63
2022-11-05T04:14:35.205Z,100991.44
2022-11-05T04:17:01.740Z,100986.34
2022-11-05T04:19:28.401Z,100984.78
2022-11-05T04:21:56.311Z,100996.53
2022-11-05T04:24:22.836Z,100998.50
2022-11-05T04:26:49.305Z,101007.72
2022-11-05T04:29:15.847Z,101014.25
2022-11-05T04:31:42.375Z,101011.81
2022-11-05T04:34:08.873Z,101019.19
2022-11-05T04:36:35.608Z,101021.16
2022-11-05T04:39:03.768Z,101016.03
2022-11-05T04:41:30.384Z,101015.31
2022-11-05T04:43:57.022Z,101016.44
2022-11-05T04:46:23.734Z,101012.13
2022-11-05T04:48:50.290Z,101016.06
2022-11-05T04:51:16.871Z,101021.72
2022-11-05T04:53:43.380Z,101020.28
2022-11-05T04:56:12.864Z,101026.81
2022-11-05T04:58:40.215Z,101034.28
2022-11-05T05:01:06.910Z,101023.78
2022-11-05T05:03:33.480Z,101025.75
2022-11-05T05:06:03.688Z,101036.78
2022-11-05T05:08:30.627Z,101034.38
2022-11-05T05:11:01.618Z,101029.25
2022-11-05T05:13:29.451Z,101024.97
2022-11-05T05:15:55.955Z,101032.44
2022-11-05T05:18:22.414Z,101033.56
2022-11-05T05:20:48.907Z,101030.25
2022-11-05T05:23:15.363Z,101047.44
2022-11-05T05:25:41.909Z,101049.53
2022-11-05T05:28:08.456Z,101050.63
2022-11-05T05:30:36.371Z,101041.00
2022-11-05T05:33:03.431Z,101047.47
2022-11-05T05:35:30.078Z,101056.56
2022-11-05T05:37:57.131Z,101056.78
2022-11-05T05:40:23.634Z,101057.06
2022-11-05T05:42:53.681Z,101050.06
2022-11-05T05:45:20.289Z,101059.28
2022-11-05T05:47:48.341Z,101060.41
2022-11-05T05:50:15.047Z,101068.59
2022-11-05T05:52:41.508Z,101065.16
2022-11-05T05:55:08.820Z,101068.00
2022-11-05T05:57:35.313Z,101075.31
2022-11-05T06:00:01.915Z,101088.94
2022-11-05T06:02:30.210Z,101095.19
2022-11-05T06:04:58.396Z,101097.97
2022-11-05T06:07:24.928Z,101104.34
2022-11-05T06:09:51.464Z,101099.94
2022-11-05T06:12:18.044Z,101110.69
2022-11-05T06:14:44.566Z,101102.63
2022-11-05T06:17:11.196Z,101102.63
2022-11-05T06:19:37.742Z,101112.53
2022-11-05T06:22:05.579Z,101122.59
2022-11-05T06:24:32.209Z,101125.38
2022-11-05T06:26:58.852Z,101128.22
2022-11-05T06:29:25.390Z,101130.06
2022-11-05T06:31:51.943Z,101132.75
2022-11-05T06:34:18.409Z,101139.81
2022-11-05T06:36:45.030Z,101147.06
2022-11-05T06:39:13.169Z,101154.28
2022-11-05T06:42:03.837Z,101157.81
2022-11-05T06:44:26.502Z,101157.81
2022-11-05T06:46:53.004Z,101161.34
2022-11-05T06:49:19.557Z,101166.72
2022-11-05T06:51:46.051Z,101166.63
2022-11-05T06:54:13.937Z,101171.03
2022-11-05T06:56:40.641Z,101169.91
2022-11-05T06:59:07.137Z,101175.28
2022-11-05T07:01:34.145Z,101176.03
2022-11-05T07:04:00.975Z,101185.69
2022-11-05T07:06:27.651Z,101179.22
2022-11-05T07:08:54.183Z,101187.03
2022-11-05T07:11:22.082Z,101186.78
2022-11-05T07:13:48.637Z,101191.94
2022-11-05T07:16:15.186Z,101202.44
2022-11-05T07:18:41.745Z,101213.94
2022-11-05T07:21:08.222Z,101210.16
2022-11-05T07:23:34.697Z,101206.50
2022-11-05T07:26:01.301Z,101208.06
2022-11-05T07:28:29.201Z,101206.94
2022-11-05T07:30:58.248Z,101213.06
2022-11-05T07:33:24.735Z,101206.56
2022-11-05T07:35:51.273Z,101215.41
2022-11-05T07:38:17.795Z,101235.81
2022-11-05T07:40:44.274Z,101237.44
2022-11-05T07:43:11.116Z,101241.69
2022-11-05T07:45:39.168Z,101244.97
2022-11-05T07:48:06.422Z,101245.63
2022-11-05T07:50:34.693Z,101242.66
2022-11-05T07:53:02.159Z,101238.84
2022-11-05T07:55:29.229Z,101244.00
2022-11-05T08:01:25.767Z,101248.16
2022-11-05T08:03:52.688Z,101245.31
2022-11-05T08:06:19.276Z,101238.84
2022-11-05T08:08:45.805Z,101231.47
2022-11-05T08:11:12.413Z,101230.50
2022-11-05T08:13:39.158Z,101238.47
2022-11-05T08:16:06.529Z,101241.75
2022-11-05T08:18:35.603Z,101248.47
2022-11-05T08:21:04.183Z,101243.56
2022-11-05T08:23:32.091Z,101253.97
2022-11-05T08:25:58.945Z,101249.06
2022-11-05T08:28:26.378Z,101255.66
2022-11-05T08:30:54.705Z,101247.91
2022-11-05T08:33:22.329Z,101255.34
2022-11-05T08:35:50.690Z,101257.13
2022-11-05T08:38:19.061Z,101259.91
2022-11-05T08:40:52.895Z,101263.78
2022-11-05T08:43:19.483Z,101267.66
2022-11-05T08:45:46.181Z,101269.56
2022-11-05T08:48:14.421Z,101269.78
2022-11-05T08:50:41.203Z,101274.53
2022-11-05T08:53:10.178Z,101278.25
2022-11-05T08:55:37.300Z,101287.69
2022-11-05T08:58:07.678Z,101289.94
2022-11-05T09:00:36.693Z,101293.84
2022-11-05T09:03:06.347Z,101291.59
2022-11-05T09:05:34.215Z,101294.59
2022-11-05T09:08:01.748Z,101297.03
2022-11-05T09:10:29.715Z,101296.38
2022-11-05T09:12:56.313Z,101291.44
2022-11-05T09:15:22.986Z,101302.41
2022-11-05T09:17:49.641Z,101310.69
2022-11-05T09:20:16.140Z,101318.97
2022-11-05T09:22:43.567Z,101314.00
2022-11-05T09:25:10.351Z,101318.84
2022-11-05T09:27:38.244Z,101324.69
2022-11-05T09:30:05.636Z,101323.91
2022-11-05T09:32:32.290Z,101319.69
2022-11-05T09:34:59.069Z,101327.09
2022-11-05T09:37:25.756Z,101325.53
2022-11-05T09:39:52.479Z,101335.63
2022-11-05T09:42:23.325Z,101333.38
2022-11-05T09:44:54.468Z,101341.94
2022-11-05T09:47:26.098Z,101336.97
2022-11-05T09:49:55.016Z,101333.69
2022-11-05T09:52:23.633Z,101337.66
2022-11-05T09:54:50.551Z,101343.50
2022-11-05T09:57:21.939Z,101343.22
2022-11-05T09:59:53.289Z,101344.94
2022-11-05T10:02:23.066Z,101344.66
2022-11-05T10:04:53.914Z,101341.50
2022-11-05T10:07:24.147Z,101344.81
2022-11-05T10:09:56.600Z,101347.09
2022-11-05T10:12:28.587Z,101336.66
2022-11-05T10:15:07.111Z,101343.66
2022-11-05T10:17:39.248Z,101338.81
2022-11-05T10:20:15.043Z,101341.22
2022-11-05T10:22:45.199Z,101345.53
2022-11-05T10:25:18.839Z,101349.66
2022-11-05T10:27:50.376Z,101353.91
2022-11-05T10:30:18.874Z,101350.19
2022-11-05T10:32:46.488Z,101352.34
2022-11-05T10:35:15.691Z,101351.91
2022-11-05T10:37:42.224Z,101356.19
2022-11-05T10:40:16.273Z,101357.28
2022-11-05T10:42:56.658Z,101349.59
2022-11-05T10:45:32.621Z,101352.59
2022-11-05T10:51:27.996Z,101368.41
2022-11-05T10:54:01.840Z,101363.69
2022-11-05T10:56:32.182Z,101366.09
2022-11-05T10:59:00.137Z,101365.84
2022-11-05T11:01:29.138Z,101369.97
2022-11-05T11:04:07.122Z,101364.97
2022-11-05T11:06:36.121Z,101359.25
2022-11-05T11:09:06.460Z,101367.78
2022-11-05T11:11:35.904Z,101370.91
2022-11-05T11:14:05.139Z,101367.19
2022-11-05T11:16:38.702Z,101374.00
2022-11-05T11:19:23.797Z,101373.75
2022-11-05T11:22:12.469Z,101373.44
2022-11-05T11:24:40.633Z,101373.13
2022-11-05T11:27:12.318Z,101378.97
2022-11-05T11:29:46.449Z,101372.53
2022-11-05T11:32:19.451Z,101374.81
2022-11-05T11:34:51.135Z,101370.66
2022-11-05T11:37:22.360Z,101378.47
2022-11-05T11:39:52.110Z,101373.78
2022-11-05T11:42:23.775Z,101381.59
2022-11-05T11:44:51.549Z,101378.72
2022-11-05T11:47:21.973Z,101374.00
2022-11-05T11:49:51.637Z,101376.59
2022-11-05T11:52:24.799Z,101381.84
2022-11-05T11:54:52.064Z,101379.84
2022-11-05T11:57:24.373Z,101385.81
2022-11-05T12:00:08.305Z,101385.81
2022-11-05T12:02:57.307Z,101382.78
2022-11-05T12:05:35.507Z,101388.94
2022-11-05T12:08:12.945Z,101382.66
2022-11-05T12:10:54.755Z,101383.38
2022-11-05T12:13:54.676Z,101388.22
2022-11-05T12:16:33.770Z,101379.84
2022-11-05T12:19:11.314Z,101385.72
2022-11-05T12:21:53.077Z,101387.03
2022-11-05T12:25:04.014Z,101387.63
2022-11-05T12:27:45.760Z,101382.19
2022-11-05T12:30:15.833Z,101371.88
2022-11-05T12:33:06.690Z,101373.16
2022-11-05T12:35:48.989Z,101376.50
2022-11-05T12:38:32.480Z,101380.66
2022-11-05T12:41:08.573Z,101374.66
2022-11-05T12:43:48.906Z,101376.69
2022-11-05T12:46:28.194Z,101370.84
2022-11-05T12:49:18.288Z,101374.72
2022-11-05T12:52:10.434Z,101374.16
2022-11-05T12:54:52.900Z,101377.16
2022-11-05T12:57:20.853Z,101381.91
2022-11-05T12:59:52.274Z,101381.31
2022-11-05T13:02:25.533Z,101375.91
2022-11-05T13:04:56.424Z,101378.63
2022-11-05T13:07:29.342Z,101380.47
2022-11-05T13:10:00.811Z,101384.22
2022-11-05T13:12:31.782Z,101384.22
2022-11-05T13:15:03.031Z,101389.09
2022-11-05T13:17:36.975Z,101379.69
2022-11-05T13:20:16.979Z,101379.97
2022-11-05T13:22:48.237Z,101375.56
2022-11-05T13:25:19.928Z,101383.69
2022-11-05T13:27:53.317Z,101381.66
2022-11-05T13:30:22.587Z,101383.25
2022-11-05T13:32:54.164Z,101381.09
2022-11-05T13:35:24.955Z,101378.25
2022-11-05T13:37:57.389Z,101386.22
2022-11-05T13:40:36.142Z,101388.22
2022-11-05T13:43:26.104Z,101388.22
2022-11-05T13:46:20.012Z,101386.50
2022-11-05T13:49:03.615Z,101390.22
2022-11-05T13:51:49.956Z,101400.53
2022-11-05T13:54:56.800Z,101394.69
2022-11-05T13:57:48.308Z,101404.69
2022-11-05T14:00:19.199Z,101407.69
2022-11-05T14:02:51.428Z,101411.53
2022-11-05T14:05:27.127Z,101406.28
2022-11-05T14:07:54.727Z,101408.28
2022-11-05T14:10:36.879Z,101411.16
2022-11-05T14:13:18.717Z,101404.31
2022-11-05T14:16:03.162Z,101406.44
2022-11-05T14:18:44.851Z,101415.88
2022-11-05T14:21:44.865Z,101410.88
2022-11-05T14:24:42.171Z,101418.47
2022-11-05T14:27:45.325Z,101422.47
2022-11-05T14:30:43.994Z,101426.47
2022-11-05T14:33:17.567Z,101424.16
2022-11-05T14:35:44.124Z,101423.31
2022-11-05T14:38:20.904Z,101427.00
2022-11-05T14:40:48.689Z,101424.59
2022-11-05T14:43:21.430Z,101424.03
2022-11-05T14:45:57.030Z,101422.75
2022-11-05T14:48:36.804Z,101434.88
2022-11-05T14:51:24.281Z,101430.06
2022-11-05T14:53:57.827Z,101432.34
2022-11-05T14:56:24.667Z,101425.63
2022-11-05T14:59:30.887Z,101426.34
2022-11-05T15:02:01.486Z,101426.22
2022-11-05T15:04:30.539Z,101426.75
2022-11-05T15:07:31.764Z,101437.44
2022-11-05T15:10:07.247Z,101438.00
2022-11-05T15:12:41.095Z,101437.84
2022-11-05T15:15:22.150Z,101436.81
2022-11-05T15:17:58.192Z,101440.22
2022-11-05T15:20:38.829Z,101447.34
2022-11-05T15:23:11.279Z,101446.31
2022-11-05T15:25:47.805Z,101452.53
2022-11-05T15:28:28.970Z,101451.50
2022-11-05T15:30:59.501Z,101460.44
2022-11-05T15:33:26.214Z,101461.97
2022-11-05T15:35:52.891Z,101462.75
2022-11-05T15:38:29.353Z,101467.13
2022-11-05T15:41:03.677Z,101466.06
2022-11-05T15:43:30.504Z,101473.94
2022-11-05T15:46:06.958Z,101471.06
2022-11-05T15:48:35.603Z,101474.41
2022-11-05T15:51:02.276Z,101474.94
2022-11-05T15:54:23.867Z,101475.59
2022-11-05T15:56:49.445Z,101471.84
2022-11-05T15:59:18.273Z,101480.59
2022-11-05T16:01:48.990Z,101482.94
2022-11-05T16:04:18.663Z,101483.47
2022-11-05T16:06:49.191Z,101486.81
2022-11-05T16:09:21.922Z,101483.75
2022-11-05T16:11:48.472Z,101485.25
2022-11-05T16:14:17.540Z,101478.63
2022-11-05T16:16:45.136Z,101483.69
2022-11-05T16:19:40.226Z,101487.03
2022-11-05T16:22:07.884Z,101483.09
2022-11-05T16:24:34.591Z,101483.59
2022-11-05T16:27:03.449Z,101477.84
2022-11-05T16:29:32.958Z,101475.63
2022-11-05T16:32:01.974Z,101484.22
2022-11-05T16:34:33.449Z,101486.53
2022-11-05T16:37:01.507Z,101491.47
2022-11-05T16:39:28.029Z,101498.19
2022-11-05T16:41:54.523Z,101501.38
2022-11-05T16:44:21.085Z,101504.41
2022-11-05T16:46:49.458Z,101511.25
2022-11-05T16:49:17.165Z,101510.75
2022-11-05T16:51:43.788Z,101513.91
2022-11-05T16:54:11.648Z,101515.16
2022-11-05T16:56:38.833Z,101520.06
2022-11-05T16:59:05.375Z,101519.56
2022-11-05T17:01:34.407Z,101522.72
2022-11-05T17:04:01.154Z,101534.69
2022-11-05T17:06:27.769Z,101527.06
2022-11-05T17:08:54.341Z,101534.53
2022-11-05T17:11:22.283Z,101549.22
2022-11-05T17:13:48.849Z,101554.94
2022-11-05T17:16:17.342Z,101548.19
2022-11-05T17:18:44.241Z,101546.69
2022-11-05T17:21:11.134Z,101551.47
2022-11-05T17:23:37.830Z,101551.69
2022-11-05T17:26:06.891Z,101557.31
2022-11-05T17:28:35.642Z,101562.06
2022-11-05T17:31:04.342Z,101562.41
2022-11-05T17:33:31.102Z,101562.63
2022-11-05T17:35:57.875Z,101569.22
2022-11-05T17:38:25.929Z,101566.88
2022-11-05T17:40:53.369Z,101570.75
2022-11-05T17:43:20.334Z,101571.00
2022-11-05T17:45:50.817Z,101568.50
2022-11-05T17:48:18.155Z,101567.00
2022-11-05T17:50:46.582Z,101571.75
2022-11-05T17:53:14.751Z,101575.56
2022-11-05T17:55:42.427Z,101576.84
2022-11-05T17:58:09.570Z,101577.94
2022-11-05T18:00:36.753Z,101579.97
2022-11-05T18:03:05.403Z,101581.16
2022-11-05T18:05:34.062Z,101586.78
2022-11-05T18:08:00.790Z,101592.38
2022-11-05T18:10:27.609Z,101583.78
2022-11-05T18:12:54.526Z,101577.63
2022-11-05T18:15:21.640Z,101577.00
2022-11-05T18:17:48.285Z,101580.78
2022-11-05T18:20:19.393Z,101576.47
2022-11-05T18:22:48.098Z,101586.72
2022-11-05T18:25:14.824Z,101577.00
2022-11-05T18:27:41.995Z,101579.06
2022-11-05T18:30:10.586Z,101578.31
2022-11-05T18:32:38.056Z,101576.69
2022-11-05T18:35:05.221Z,101571.56
2022-11-05T18:37:33.144Z,101567.22
2022-11-05T18:39:59.727Z,101564.78
2022-11-05T18:42:26.268Z,101563.19
2022-11-05T18:44:52.883Z,101574.97
2022-11-05T18:47:19.605Z,101573.25
2022-11-05T18:49:46.165Z,101576.94
2022-11-05T18:52:12.807Z,101574.34
2022-11-05T18:54:40.761Z,101573.56
2022-11-05T18:57:07.521Z,101577.25
2022-11-05T18:59:38.281Z,101584.53
2022-11-05T19:02:06.340Z,101576.72
2022-11-05T19:04:34.995Z,101578.63
2022-11-05T19:07:04.709Z,101578.84
2022-11-05T19:09:32.447Z,101579.94
2022-11-05T19:12:00.970Z,101575.63
2022-11-05T19:14:27.714Z,101571.44
2022-11-05T19:16:54.702Z,101581.44
2022-11-05T19:19:21.448Z,101581.63
2022-11-05T19:21:47.998Z,101588.16
2022-11-05T19:24:17.620Z,101583.97
2022-11-05T19:26:44.581Z,101586.88
2022-11-05T19:29:12.612Z,101587.06
2022-11-05T19:31:39.212Z,101590.94
2022-11-05T19:34:06.088Z,101582.13
2022-11-05T19:36:33.533Z,101585.97
2022-11-05T19:39:05.868Z,101581.63
2022-11-05T19:41:32.459Z,101582.72
2022-11-05T19:43:59.063Z,101577.56
2022-11-05T19:46:28.379Z,101579.56
2022-11-05T19:48:54.903Z,101570.88
2022-11-05T19:51:23.370Z,101584.50
2022-11-05T19:53:50.328Z,101580.22
2022-11-05T19:56:19.953Z,101581.25
2022-11-05T19:58:46.964Z,101588.44
2022-11-05T20:01:15.268Z,101595.84
2022-11-05T20:03:43.696Z,101584.47
2022-11-05T20:06:12.583Z,101584.69
2022-11-05T20:08:53.296Z,101599.06
2022-11-05T20:11:26.601Z,101597.53
2022-11-05T20:13:53.144Z,101598.56
2022-11-05T20:16:21.725Z,101600.53
2022-11-05T20:18:49.856Z,101606.94
2022-11-05T20:21:16.984Z,101605.22
2022-11-05T20:23:43.572Z,101611.63
2022-11-05T20:26:11.249Z,101605.63
2022-11-05T20:28:39.224Z,101605.81
2022-11-05T20:31:10.490Z,101612.22
2022-11-05T20:33:37.379Z,101611.56
2022-11-05T20:36:16.039Z,101617.03
2022-11-05T20:38:43.372Z,101619.91
2022-11-05T20:41:12.059Z,101612.81
2022-11-05T20:43:39.818Z,101606.81
2022-11-05T20:46:06.496Z,101599.72
2022-11-05T20:48:34.012Z,101597.16
2022-11-05T20:51:06.471Z,101602.50
2022-11-05T20:53:33.725Z,101602.59
2022-11-05T20:56:05.057Z,101603.47
2022-11-05T20:58:34.761Z,101613.31
2022-11-05T21:01:01.382Z,101616.97
2022-11-05T21:03:27.890Z,101611.72
2022-11-05T21:05:55.859Z,101618.03
2022-11-05T21:08:23.685Z,101627.88
2022-11-05T21:10:51.520Z,101632.38
2022-11-05T21:13:18.328Z,101627.16
2022-11-05T21:15:48.389Z,101628.09
2022-11-05T21:18:15.047Z,101636.13
2022-11-05T21:20:41.593Z,101636.13
2022-11-05T21:23:08.148Z,101628.19
2022-11-05T21:25:38.546Z,101620.22
2022-11-05T21:28:05.356Z,101619.38
2022-11-05T21:30:32.131Z,101614.97
2022-11-05T21:32:58.624Z,101615.06
2022-11-05T21:35:25.280Z,101615.16
2022-11-05T21:37:51.790Z,101608.09
2022-11-05T21:40:18.304Z,101613.53
2022-11-05T21:42:46.238Z,101616.22
2022-11-05T21:45:12.743Z,101612.78
2022-11-05T21:47:39.365Z,101612.00
2022-11-05T21:50:06.916Z,101618.44
2022-11-05T21:52:33.653Z,101624.75
2022-11-05T21:55:00.105Z,101616.72
2022-11-05T21:57:26.594Z,101618.63
2022-11-05T21:59:54.928Z,101620.53
2022-11-05T22:02:23.227Z,101617.88
2022-11-05T22:04:51.935Z,101613.47
2022-11-05T22:07:20.711Z,101614.41
2022-11-05T22:09:47.675Z,101618.81
2022-11-05T22:12:14.489Z,101611.63
2022-11-05T22:14:41.054Z,101613.38
2022-11-05T22:17:09.903Z,101612.50
2022-11-05T22:19:36.700Z,101621.41
2022-11-05T22:22:04.451Z,101614.31
2022-11-05T22:24:31.205Z,101613.53
2022-11-05T22:26:58.809Z,101618.03
2022-11-05T22:29:25.427Z,101611.84
2022-11-05T22:31:51.959Z,101610.00
2022-11-05T22:34:20.166Z,101610.84
2022-11-05T22:36:46.872Z,101614.31
2022-11-05T22:39:13.848Z,101616.13
2022-11-05T22:41:40.807Z,101616.91
2022-11-05T22:44:07.538Z,101611.56
2022-11-05T22:46:34.142Z,101616.91
2022-11-05T22:49:00.619Z,101616.81
2022-11-05T22:51:30.824Z,101614.03
2022-11-05T22:53:57.964Z,101609.53
2022-11-05T22:56:26.258Z,101612.22
2022-11-05T22:58:52.928Z,101618.31
2022-11-05T23:01:21.013Z,101604.91
2022-11-05T23:03:49.338Z,101612.88
2022-11-05T23:06:19.798Z,101616.31
2022-11-05T23:08:47.691Z,101617.09
2022-11-05T23:11:15.743Z,101616.13
2022-11-05T23:13:42.280Z,101609.78
2022-11-05T23:16:08.935Z,101611.63
2022-11-05T23:18:35.457Z,101607.09
2022-11-05T23:21:02.082Z,101608.84
2022-11-05T23:23:28.688Z,101615.94
2022-11-05T23:25:58.421Z,101612.31
2022-11-05T23:28:25.071Z,101607.81
2022-11-05T23:30:51.561Z,101607.69
2022-11-05T23:33:18.069Z,101608.47
2022-11-05T23:35:44.565Z,101605.78
2022-11-05T23:38:11.323Z,101611.88
2022-11-05T23:40:38.088Z,101611.06
2022-11-05T23:43:05.974Z,101602.16
2022-11-05T23:45:33.378Z,101605.78
2022-11-05T23:48:06.619Z,101599.47
2022-11-05T23:50:38.548Z,101599.47
2022-11-05T23:53:06.724Z,101593.25
2022-11-05T23:55:33.386Z,101594.09
2022-11-05T23:57:59.972Z,101586.16
